sensor_id;sensor_type;location;lat;lon;timestamp;P1;durP1;ratioP1;P2;durP2;ratioP2
45318;SDS011;31057;48.498;32.260;2023-03-31T00:03:04;33.60;;;17.73;;
45318;SDS011;31057;48.498;32.260;2023-03-31T00:05:10;27.92;;;15.95;;
45318;SDS011;31057;48.498;32.260;2023-03-31T00:07:19;25.60;;;13.43;;
45318;SDS011;31057;48.498;32.260;2023-03-31T00:09:25;28.40;;;16.52;;
45318;SDS011;31057;48.498;32.260;2023-03-31T00:11:30;25.88;;;14.55;;
45318;SDS011;31057;48.498;32.260;2023-03-31T00:13:32;23.95;;;16.63;;
45318;SDS011;31057;48.498;32.260;2023-03-31T00:15:34;25.92;;;15.23;;
45318;SDS011;31057;48.498;32.260;2023-03-31T00:17:36;18.20;;;11.57;;
45318;SDS011;31057;48.498;32.260;2023-03-31T00:21:42;23.63;;;12.95;;
45318;SDS011;31057;48.498;32.260;2023-03-31T00:23:56;22.05;;;12.55;;
45318;SDS011;31057;48.498;32.260;2023-03-31T00:25:59;19.02;;;12.57;;
45318;SDS011;31057;48.498;32.260;2023-03-31T00:28:01;17.10;;;12.85;;
45318;SDS011;31057;48.498;32.260;2023-03-31T00:32:06;20.38;;;15.93;;
45318;SDS011;31057;48.498;32.260;2023-03-31T00:34:08;16.25;;;11.93;;
45318;SDS011;31057;48.498;32.260;2023-03-31T00:36:11;17.13;;;10.60;;
45318;SDS011;31057;48.498;32.260;2023-03-31T00:40:14;16.20;;;11.10;;
45318;SDS011;31057;48.498;32.260;2023-03-31T00:48:58;20.95;;;13.95;;
45318;SDS011;31057;48.498;32.260;2023-03-31T00:51:01;25.95;;;13.65;;
45318;SDS011;31057;48.498;32.260;2023-03-31T00:53:11;24.95;;;14.57;;
45318;SDS011;31057;48.498;32.260;2023-03-31T00:55:18;25.85;;;15.18;;
45318;SDS011;31057;48.498;32.260;2023-03-31T00:57:25;21.52;;;13.65;;
45318;SDS011;31057;48.498;32.260;2023-03-31T00:59:29;21.73;;;13.15;;
45318;SDS011;31057;48.498;32.260;2023-03-31T01:01:34;20.95;;;13.48;;
45318;SDS011;31057;48.498;32.260;2023-03-31T01:03:36;22.83;;;12.35;;
45318;SDS011;31057;48.498;32.260;2023-03-31T01:05:41;19.70;;;13.48;;
45318;SDS011;31057;48.498;32.260;2023-03-31T01:07:50;17.63;;;12.50;;
45318;SDS011;31057;48.498;32.260;2023-03-31T01:09:54;16.70;;;9.45;;
45318;SDS011;31057;48.498;32.260;2023-03-31T01:12:02;15.20;;;9.80;;
45318;SDS011;31057;48.498;32.260;2023-03-31T01:14:08;13.13;;;8.65;;
45318;SDS011;31057;48.498;32.260;2023-03-31T01:16:10;14.20;;;9.57;;
45318;SDS011;31057;48.498;32.260;2023-03-31T01:18:13;15.95;;;8.85;;
45318;SDS011;31057;48.498;32.260;2023-03-31T01:33:42;17.50;;;10.40;;
45318;SDS011;31057;48.498;32.260;2023-03-31T01:36:01;15.52;;;11.15;;
45318;SDS011;31057;48.498;32.260;2023-03-31T01:38:36;17.65;;;12.13;;
45318;SDS011;31057;48.498;32.260;2023-03-31T01:47:51;18.55;;;10.82;;
45318;SDS011;31057;48.498;32.260;2023-03-31T01:49:56;16.67;;;10.88;;
45318;SDS011;31057;48.498;32.260;2023-03-31T01:54:40;17.92;;;13.18;;
45318;SDS011;31057;48.498;32.260;2023-03-31T01:56:54;16.05;;;11.80;;
45318;SDS011;31057;48.498;32.260;2023-03-31T01:59:09;13.38;;;9.68;;
45318;SDS011;31057;48.498;32.260;2023-03-31T02:01:27;16.30;;;8.73;;
45318;SDS011;31057;48.498;32.260;2023-03-31T02:03:39;14.10;;;9.38;;
45318;SDS011;31057;48.498;32.260;2023-03-31T02:07:57;12.38;;;7.65;;
45318;SDS011;31057;48.498;32.260;2023-03-31T02:10:36;18.33;;;9.73;;
45318;SDS011;31057;48.498;32.260;2023-03-31T02:12:41;17.90;;;10.02;;
45318;SDS011;31057;48.498;32.260;2023-03-31T02:14:45;29.52;;;15.80;;
45318;SDS011;31057;48.498;32.260;2023-03-31T02:16:52;29.58;;;15.00;;
45318;SDS011;31057;48.498;32.260;2023-03-31T02:18:59;29.75;;;15.10;;
45318;SDS011;31057;48.498;32.260;2023-03-31T02:21:06;35.60;;;17.45;;
45318;SDS011;31057;48.498;32.260;2023-03-31T02:23:11;34.25;;;17.90;;
45318;SDS011;31057;48.498;32.260;2023-03-31T02:25:16;24.25;;;14.13;;
45318;SDS011;31057;48.498;32.260;2023-03-31T02:27:24;13.98;;;8.48;;
45318;SDS011;31057;48.498;32.260;2023-03-31T02:29:28;11.43;;;8.90;;
45318;SDS011;31057;48.498;32.260;2023-03-31T02:31:37;11.82;;;7.93;;
45318;SDS011;31057;48.498;32.260;2023-03-31T02:33:47;14.35;;;10.93;;
45318;SDS011;31057;48.498;32.260;2023-03-31T02:35:49;15.82;;;8.57;;
45318;SDS011;31057;48.498;32.260;2023-03-31T02:37:51;14.23;;;8.75;;
45318;SDS011;31057;48.498;32.260;2023-03-31T02:39:54;15.88;;;9.18;;
45318;SDS011;31057;48.498;32.260;2023-03-31T02:41:59;15.10;;;9.25;;
45318;SDS011;31057;48.498;32.260;2023-03-31T02:44:07;15.82;;;10.02;;
45318;SDS011;31057;48.498;32.260;2023-03-31T02:46:10;13.40;;;9.38;;
45318;SDS011;31057;48.498;32.260;2023-03-31T02:48:17;15.13;;;10.07;;
45318;SDS011;31057;48.498;32.260;2023-03-31T02:50:29;13.73;;;8.13;;
45318;SDS011;31057;48.498;32.260;2023-03-31T03:02:17;17.77;;;9.63;;
45318;SDS011;31057;48.498;32.260;2023-03-31T03:04:31;13.98;;;10.43;;
45318;SDS011;31057;48.498;32.260;2023-03-31T03:07:06;28.20;;;16.10;;
45318;SDS011;31057;48.498;32.260;2023-03-31T03:12:06;22.98;;;12.18;;
45318;SDS011;31057;48.498;32.260;2023-03-31T03:18:27;20.90;;;13.57;;
45318;SDS011;31057;48.498;32.260;2023-03-31T03:22:34;71.30;;;35.50;;
45318;SDS011;31057;48.498;32.260;2023-03-31T03:24:37;55.92;;;30.90;;
45318;SDS011;31057;48.498;32.260;2023-03-31T03:26:40;30.33;;;17.80;;
45318;SDS011;31057;48.498;32.260;2023-03-31T03:28:41;27.23;;;16.33;;
45318;SDS011;31057;48.498;32.260;2023-03-31T03:30:43;23.17;;;12.55;;
45318;SDS011;31057;48.498;32.260;2023-03-31T03:32:46;18.25;;;10.50;;
45318;SDS011;31057;48.498;32.260;2023-03-31T03:34:48;15.50;;;10.95;;
45318;SDS011;31057;48.498;32.260;2023-03-31T03:38:52;54.25;;;27.25;;
45318;SDS011;31057;48.498;32.260;2023-03-31T03:40:53;59.30;;;28.15;;
45318;SDS011;31057;48.498;32.260;2023-03-31T03:44:57;24.73;;;13.85;;
45318;SDS011;31057;48.498;32.260;2023-03-31T03:46:59;28.00;;;16.40;;
45318;SDS011;31057;48.498;32.260;2023-03-31T03:49:01;22.98;;;13.10;;
45318;SDS011;31057;48.498;32.260;2023-03-31T03:53:05;13.30;;;7.78;;
45318;SDS011;31057;48.498;32.260;2023-03-31T03:55:08;11.57;;;7.47;;
45318;SDS011;31057;48.498;32.260;2023-03-31T03:57:12;14.30;;;10.32;;
45318;SDS011;31057;48.498;32.260;2023-03-31T03:59:14;16.98;;;10.40;;
45318;SDS011;31057;48.498;32.260;2023-03-31T04:03:18;26.15;;;15.27;;
45318;SDS011;31057;48.498;32.260;2023-03-31T04:05:20;25.25;;;15.30;;
45318;SDS011;31057;48.498;32.260;2023-03-31T04:09:24;32.05;;;15.63;;
45318;SDS011;31057;48.498;32.260;2023-03-31T04:13:28;36.78;;;23.05;;
45318;SDS011;31057;48.498;32.260;2023-03-31T04:17:32;31.27;;;18.75;;
45318;SDS011;31057;48.498;32.260;2023-03-31T04:19:35;42.55;;;21.38;;
45318;SDS011;31057;48.498;32.260;2023-03-31T04:21:38;29.30;;;15.32;;
45318;SDS011;31057;48.498;32.260;2023-03-31T04:23:45;38.17;;;20.40;;
45318;SDS011;31057;48.498;32.260;2023-03-31T04:25:49;29.20;;;17.67;;
45318;SDS011;31057;48.498;32.260;2023-03-31T04:27:51;29.20;;;14.77;;
45318;SDS011;31057;48.498;32.260;2023-03-31T04:29:56;33.03;;;16.55;;
45318;SDS011;31057;48.498;32.260;2023-03-31T04:31:58;25.33;;;15.98;;
45318;SDS011;31057;48.498;32.260;2023-03-31T04:34:00;24.13;;;15.10;;
45318;SDS011;31057;48.498;32.260;2023-03-31T04:36:03;35.92;;;14.15;;
45318;SDS011;31057;48.498;32.260;2023-03-31T04:38:19;28.85;;;15.43;;
45318;SDS011;31057;48.498;32.260;2023-03-31T04:40:22;22.67;;;14.65;;
45318;SDS011;31057;48.498;32.260;2023-03-31T04:42:25;28.33;;;15.20;;
45318;SDS011;31057;48.498;32.260;2023-03-31T04:44:27;23.60;;;12.85;;
45318;SDS011;31057;48.498;32.260;2023-03-31T04:46:29;26.52;;;12.50;;
45318;SDS011;31057;48.498;32.260;2023-03-31T04:48:32;39.00;;;14.88;;
45318;SDS011;31057;48.498;32.260;2023-03-31T04:52:36;33.53;;;12.25;;
45318;SDS011;31057;48.498;32.260;2023-03-31T04:54:38;28.27;;;12.18;;
45318;SDS011;31057;48.498;32.260;2023-03-31T04:56:41;33.88;;;15.15;;
45318;SDS011;31057;48.498;32.260;2023-03-31T04:58:43;31.88;;;13.18;;
45318;SDS011;31057;48.498;32.260;2023-03-31T05:00:45;19.90;;;10.60;;
45318;SDS011;31057;48.498;32.260;2023-03-31T05:02:47;31.33;;;13.50;;
45318;SDS011;31057;48.498;32.260;2023-03-31T05:04:49;29.67;;;13.00;;
45318;SDS011;31057;48.498;32.260;2023-03-31T05:06:51;25.77;;;12.15;;
45318;SDS011;31057;48.498;32.260;2023-03-31T05:08:53;16.42;;;10.57;;
45318;SDS011;31057;48.498;32.260;2023-03-31T05:10:55;19.70;;;10.75;;
45318;SDS011;31057;48.498;32.260;2023-03-31T05:12:58;17.13;;;10.43;;
45318;SDS011;31057;48.498;32.260;2023-03-31T05:14:59;19.73;;;10.98;;
45318;SDS011;31057;48.498;32.260;2023-03-31T05:19:03;21.70;;;12.40;;
45318;SDS011;31057;48.498;32.260;2023-03-31T05:23:14;25.75;;;12.65;;
45318;SDS011;31057;48.498;32.260;2023-03-31T05:25:16;30.63;;;14.07;;
45318;SDS011;31057;48.498;32.260;2023-03-31T05:27:22;29.95;;;14.13;;
45318;SDS011;31057;48.498;32.260;2023-03-31T05:29:24;27.52;;;13.65;;
45318;SDS011;31057;48.498;32.260;2023-03-31T05:33:28;21.73;;;12.85;;
45318;SDS011;31057;48.498;32.260;2023-03-31T05:37:32;29.90;;;14.32;;
45318;SDS011;31057;48.498;32.260;2023-03-31T05:39:34;25.58;;;14.48;;
45318;SDS011;31057;48.498;32.260;2023-03-31T05:41:36;27.15;;;16.25;;
45318;SDS011;31057;48.498;32.260;2023-03-31T05:43:38;30.65;;;15.65;;
45318;SDS011;31057;48.498;32.260;2023-03-31T05:47:42;23.98;;;13.25;;
45318;SDS011;31057;48.498;32.260;2023-03-31T05:49:44;26.67;;;13.88;;
45318;SDS011;31057;48.498;32.260;2023-03-31T05:51:46;34.60;;;14.90;;
45318;SDS011;31057;48.498;32.260;2023-03-31T05:55:54;39.65;;;16.40;;
45318;SDS011;31057;48.498;32.260;2023-03-31T05:58:00;27.13;;;15.13;;
45318;SDS011;31057;48.498;32.260;2023-03-31T06:00:03;22.10;;;12.82;;
45318;SDS011;31057;48.498;32.260;2023-03-31T06:02:07;34.92;;;21.15;;
45318;SDS011;31057;48.498;32.260;2023-03-31T06:04:12;21.83;;;13.45;;
45318;SDS011;31057;48.498;32.260;2023-03-31T06:08:16;29.33;;;12.32;;
45318;SDS011;31057;48.498;32.260;2023-03-31T06:10:18;21.73;;;11.68;;
45318;SDS011;31057;48.498;32.260;2023-03-31T06:12:20;22.45;;;12.40;;
45318;SDS011;31057;48.498;32.260;2023-03-31T06:14:22;23.60;;;12.38;;
45318;SDS011;31057;48.498;32.260;2023-03-31T06:18:27;25.55;;;13.25;;
45318;SDS011;31057;48.498;32.260;2023-03-31T06:20:30;30.55;;;13.73;;
45318;SDS011;31057;48.498;32.260;2023-03-31T06:22:32;32.75;;;14.48;;
45318;SDS011;31057;48.498;32.260;2023-03-31T06:24:34;25.75;;;13.77;;
45318;SDS011;31057;48.498;32.260;2023-03-31T06:26:36;29.63;;;12.93;;
45318;SDS011;31057;48.498;32.260;2023-03-31T06:28:38;30.38;;;15.60;;
45318;SDS011;31057;48.498;32.260;2023-03-31T06:30:40;25.70;;;14.50;;
45318;SDS011;31057;48.498;32.260;2023-03-31T06:34:44;28.95;;;16.33;;
45318;SDS011;31057;48.498;32.260;2023-03-31T06:36:47;35.53;;;15.90;;
45318;SDS011;31057;48.498;32.260;2023-03-31T06:38:49;25.27;;;17.40;;
45318;SDS011;31057;48.498;32.260;2023-03-31T06:40:51;31.15;;;17.67;;
45318;SDS011;31057;48.498;32.260;2023-03-31T06:44:55;32.28;;;15.05;;
45318;SDS011;31057;48.498;32.260;2023-03-31T06:46:57;23.80;;;14.52;;
45318;SDS011;31057;48.498;32.260;2023-03-31T06:48:59;31.10;;;16.38;;
45318;SDS011;31057;48.498;32.260;2023-03-31T06:53:04;26.15;;;15.60;;
45318;SDS011;31057;48.498;32.260;2023-03-31T06:55:06;35.35;;;17.45;;
45318;SDS011;31057;48.498;32.260;2023-03-31T06:57:09;33.45;;;19.10;;
45318;SDS011;31057;48.498;32.260;2023-03-31T06:59:11;33.72;;;19.25;;
45318;SDS011;31057;48.498;32.260;2023-03-31T07:01:13;28.45;;;18.05;;
45318;SDS011;31057;48.498;32.260;2023-03-31T07:05:19;29.30;;;17.02;;
45318;SDS011;31057;48.498;32.260;2023-03-31T07:07:29;32.22;;;18.45;;
45318;SDS011;31057;48.498;32.260;2023-03-31T07:09:32;30.92;;;15.45;;
45318;SDS011;31057;48.498;32.260;2023-03-31T07:11:34;34.35;;;20.08;;
45318;SDS011;31057;48.498;32.260;2023-03-31T07:13:36;37.00;;;21.15;;
45318;SDS011;31057;48.498;32.260;2023-03-31T07:15:38;31.48;;;18.75;;
45318;SDS011;31057;48.498;32.260;2023-03-31T07:17:40;26.85;;;16.35;;
45318;SDS011;31057;48.498;32.260;2023-03-31T07:19:42;28.45;;;16.52;;
45318;SDS011;31057;48.498;32.260;2023-03-31T07:21:48;19.85;;;10.60;;
45318;SDS011;31057;48.498;32.260;2023-03-31T07:23:50;15.68;;;10.10;;
45318;SDS011;31057;48.498;32.260;2023-03-31T07:27:54;7.90;;;4.93;;
45318;SDS011;31057;48.498;32.260;2023-03-31T07:29:56;9.10;;;4.70;;
45318;SDS011;31057;48.498;32.260;2023-03-31T07:31:58;8.75;;;5.45;;
45318;SDS011;31057;48.498;32.260;2023-03-31T07:34:01;8.25;;;5.68;;
45318;SDS011;31057;48.498;32.260;2023-03-31T07:36:04;8.95;;;5.53;;
45318;SDS011;31057;48.498;32.260;2023-03-31T07:38:13;13.02;;;5.85;;
45318;SDS011;31057;48.498;32.260;2023-03-31T07:42:22;11.10;;;5.82;;
45318;SDS011;31057;48.498;32.260;2023-03-31T07:44:24;7.45;;;4.72;;
45318;SDS011;31057;48.498;32.260;2023-03-31T07:46:26;12.07;;;5.60;;
45318;SDS011;31057;48.498;32.260;2023-03-31T07:48:29;9.20;;;4.97;;
45318;SDS011;31057;48.498;32.260;2023-03-31T07:50:31;12.00;;;5.20;;
45318;SDS011;31057;48.498;32.260;2023-03-31T07:54:35;13.20;;;5.53;;
45318;SDS011;31057;48.498;32.260;2023-03-31T07:56:37;8.98;;;5.15;;
45318;SDS011;31057;48.498;32.260;2023-03-31T07:58:39;9.05;;;5.13;;
45318;SDS011;31057;48.498;32.260;2023-03-31T08:02:43;8.17;;;4.10;;
45318;SDS011;31057;48.498;32.260;2023-03-31T08:04:45;10.30;;;6.22;;
45318;SDS011;31057;48.498;32.260;2023-03-31T08:06:47;8.88;;;5.60;;
45318;SDS011;31057;48.498;32.260;2023-03-31T08:08:51;10.48;;;5.80;;
45318;SDS011;31057;48.498;32.260;2023-03-31T08:10:53;9.38;;;5.97;;
45318;SDS011;31057;48.498;32.260;2023-03-31T08:12:55;13.02;;;6.78;;
45318;SDS011;31057;48.498;32.260;2023-03-31T08:14:57;10.35;;;5.80;;
45318;SDS011;31057;48.498;32.260;2023-03-31T08:16:59;7.05;;;5.70;;
45318;SDS011;31057;48.498;32.260;2023-03-31T08:19:01;7.32;;;4.50;;
45318;SDS011;31057;48.498;32.260;2023-03-31T08:23:06;9.95;;;5.28;;
45318;SDS011;31057;48.498;32.260;2023-03-31T08:25:11;12.25;;;5.68;;
45318;SDS011;31057;48.498;32.260;2023-03-31T08:27:14;7.72;;;4.50;;
45318;SDS011;31057;48.498;32.260;2023-03-31T08:29:17;10.75;;;4.22;;
45318;SDS011;31057;48.498;32.260;2023-03-31T08:31:19;8.70;;;4.28;;
45318;SDS011;31057;48.498;32.260;2023-03-31T08:33:27;4.95;;;3.90;;
45318;SDS011;31057;48.498;32.260;2023-03-31T08:35:30;11.82;;;4.70;;
45318;SDS011;31057;48.498;32.260;2023-03-31T08:37:32;6.68;;;4.82;;
45318;SDS011;31057;48.498;32.260;2023-03-31T08:39:34;5.15;;;3.97;;
45318;SDS011;31057;48.498;32.260;2023-03-31T08:43:57;6.70;;;4.13;;
45318;SDS011;31057;48.498;32.260;2023-03-31T08:46:02;6.15;;;4.45;;
45318;SDS011;31057;48.498;32.260;2023-03-31T08:48:08;4.63;;;3.58;;
45318;SDS011;31057;48.498;32.260;2023-03-31T08:50:22;6.28;;;4.20;;
45318;SDS011;31057;48.498;32.260;2023-03-31T08:52:32;5.68;;;3.83;;
45318;SDS011;31057;48.498;32.260;2023-03-31T08:54:42;7.07;;;4.55;;
45318;SDS011;31057;48.498;32.260;2023-03-31T08:56:48;6.43;;;3.75;;
45318;SDS011;31057;48.498;32.260;2023-03-31T08:58:51;5.28;;;3.63;;
45318;SDS011;31057;48.498;32.260;2023-03-31T09:03:24;7.20;;;4.63;;
45318;SDS011;31057;48.498;32.260;2023-03-31T09:10:34;5.22;;;3.70;;
45318;SDS011;31057;48.498;32.260;2023-03-31T09:14:53;8.68;;;4.47;;
45318;SDS011;31057;48.498;32.260;2023-03-31T09:22:14;8.48;;;4.28;;
45318;SDS011;31057;48.498;32.260;2023-03-31T09:24:29;7.15;;;3.85;;
45318;SDS011;31057;48.498;32.260;2023-03-31T09:28:57;8.02;;;4.45;;
45318;SDS011;31057;48.498;32.260;2023-03-31T09:31:03;12.13;;;6.55;;
45318;SDS011;31057;48.498;32.260;2023-03-31T09:33:29;10.57;;;4.85;;
45318;SDS011;31057;48.498;32.260;2023-03-31T09:35:34;8.32;;;4.53;;
45318;SDS011;31057;48.498;32.260;2023-03-31T09:37:37;7.25;;;3.92;;
45318;SDS011;31057;48.498;32.260;2023-03-31T09:39:39;5.13;;;3.35;;
45318;SDS011;31057;48.498;32.260;2023-03-31T09:41:42;4.80;;;3.10;;
45318;SDS011;31057;48.498;32.260;2023-03-31T09:43:46;8.63;;;3.65;;
45318;SDS011;31057;48.498;32.260;2023-03-31T09:45:49;5.20;;;3.70;;
45318;SDS011;31057;48.498;32.260;2023-03-31T09:48:13;5.05;;;3.38;;
45318;SDS011;31057;48.498;32.260;2023-03-31T09:50:21;5.22;;;3.92;;
45318;SDS011;31057;48.498;32.260;2023-03-31T09:52:29;6.80;;;4.35;;
45318;SDS011;31057;48.498;32.260;2023-03-31T09:54:49;7.28;;;4.68;;
45318;SDS011;31057;48.498;32.260;2023-03-31T09:56:53;5.60;;;3.70;;
45318;SDS011;31057;48.498;32.260;2023-03-31T09:58:55;10.07;;;4.40;;
45318;SDS011;31057;48.498;32.260;2023-03-31T10:01:03;11.35;;;5.28;;
45318;SDS011;31057;48.498;32.260;2023-03-31T10:03:11;6.32;;;4.05;;
45318;SDS011;31057;48.498;32.260;2023-03-31T10:05:33;6.70;;;4.53;;
45318;SDS011;31057;48.498;32.260;2023-03-31T10:07:43;6.97;;;4.22;;
45318;SDS011;31057;48.498;32.260;2023-03-31T10:09:45;8.93;;;3.88;;
45318;SDS011;31057;48.498;32.260;2023-03-31T10:12:06;8.15;;;4.20;;
45318;SDS011;31057;48.498;32.260;2023-03-31T10:14:15;5.28;;;3.70;;
45318;SDS011;31057;48.498;32.260;2023-03-31T10:18:30;7.30;;;3.42;;
45318;SDS011;31057;48.498;32.260;2023-03-31T10:20:41;5.82;;;3.60;;
45318;SDS011;31057;48.498;32.260;2023-03-31T10:22:45;7.15;;;3.75;;
45318;SDS011;31057;48.498;32.260;2023-03-31T10:24:49;6.25;;;3.78;;
45318;SDS011;31057;48.498;32.260;2023-03-31T10:26:53;5.78;;;3.95;;
45318;SDS011;31057;48.498;32.260;2023-03-31T10:28:57;5.28;;;4.05;;
45318;SDS011;31057;48.498;32.260;2023-03-31T10:33:05;7.20;;;3.55;;
45318;SDS011;31057;48.498;32.260;2023-03-31T10:37:27;5.40;;;3.80;;
45318;SDS011;31057;48.498;32.260;2023-03-31T10:39:31;6.15;;;3.50;;
45318;SDS011;31057;48.498;32.260;2023-03-31T10:41:33;9.25;;;4.50;;
45318;SDS011;31057;48.498;32.260;2023-03-31T10:45:42;7.45;;;4.38;;
45318;SDS011;31057;48.498;32.260;2023-03-31T10:47:52;3.92;;;3.40;;
45318;SDS011;31057;48.498;32.260;2023-03-31T10:49:56;8.13;;;3.20;;
45318;SDS011;31057;48.498;32.260;2023-03-31T10:51:58;7.10;;;3.63;;
45318;SDS011;31057;48.498;32.260;2023-03-31T10:54:01;10.80;;;3.63;;
45318;SDS011;31057;48.498;32.260;2023-03-31T11:03:52;7.22;;;4.18;;
45318;SDS011;31057;48.498;32.260;2023-03-31T11:13:07;7.15;;;5.20;;
45318;SDS011;31057;48.498;32.260;2023-03-31T11:21:51;6.88;;;5.05;;
45318;SDS011;31057;48.498;32.260;2023-03-31T11:26:15;8.70;;;6.03;;
45318;SDS011;31057;48.498;32.260;2023-03-31T11:31:00;8.60;;;5.43;;
45318;SDS011;31057;48.498;32.260;2023-03-31T11:38:27;5.75;;;4.20;;
45318;SDS011;31057;48.498;32.260;2023-03-31T11:40:52;6.80;;;4.82;;
45318;SDS011;31057;48.498;32.260;2023-03-31T11:45:12;6.15;;;4.60;;
45318;SDS011;31057;48.498;32.260;2023-03-31T11:47:19;7.38;;;4.00;;
45318;SDS011;31057;48.498;32.260;2023-03-31T11:49:27;7.90;;;4.32;;
45318;SDS011;31057;48.498;32.260;2023-03-31T11:53:57;9.18;;;3.97;;
45318;SDS011;31057;48.498;32.260;2023-03-31T11:56:02;9.63;;;4.85;;
45318;SDS011;31057;48.498;32.260;2023-03-31T11:58:19;9.10;;;5.05;;
45318;SDS011;31057;48.498;32.260;2023-03-31T12:00:39;6.70;;;4.85;;
45318;SDS011;31057;48.498;32.260;2023-03-31T12:04:58;5.35;;;4.15;;
45318;SDS011;31057;48.498;32.260;2023-03-31T12:07:03;9.55;;;4.55;;
45318;SDS011;31057;48.498;32.260;2023-03-31T12:13:59;6.45;;;4.75;;
45318;SDS011;31057;48.498;32.260;2023-03-31T12:16:25;5.32;;;4.35;;
45318;SDS011;31057;48.498;32.260;2023-03-31T12:18:30;8.25;;;4.72;;
45318;SDS011;31057;48.498;32.260;2023-03-31T12:20:38;8.23;;;5.45;;
45318;SDS011;31057;48.498;32.260;2023-03-31T12:22:45;4.63;;;3.50;;
45318;SDS011;31057;48.498;32.260;2023-03-31T12:24:50;7.03;;;4.75;;
45318;SDS011;31057;48.498;32.260;2023-03-31T12:29:07;9.48;;;4.32;;
45318;SDS011;31057;48.498;32.260;2023-03-31T12:31:21;5.78;;;4.00;;
45318;SDS011;31057;48.498;32.260;2023-03-31T12:33:31;8.45;;;3.60;;
45318;SDS011;31057;48.498;32.260;2023-03-31T12:38:29;6.13;;;4.35;;
45318;SDS011;31057;48.498;32.260;2023-03-31T12:54:54;4.60;;;3.10;;
45318;SDS011;31057;48.498;32.260;2023-03-31T12:59:24;6.65;;;3.67;;
45318;SDS011;31057;48.498;32.260;2023-03-31T13:01:34;6.40;;;3.80;;
45318;SDS011;31057;48.498;32.260;2023-03-31T13:04:20;5.03;;;3.83;;
45318;SDS011;31057;48.498;32.260;2023-03-31T13:15:02;6.00;;;3.70;;
45318;SDS011;31057;48.498;32.260;2023-03-31T13:17:25;6.63;;;3.58;;
45318;SDS011;31057;48.498;32.260;2023-03-31T13:19:30;5.90;;;4.25;;
45318;SDS011;31057;48.498;32.260;2023-03-31T13:22:25;5.28;;;3.97;;
45318;SDS011;31057;48.498;32.260;2023-03-31T13:24:05;8.20;;;3.83;;
45318;SDS011;31057;48.498;32.260;2023-03-31T13:26:22;6.97;;;3.90;;
45318;SDS011;31057;48.498;32.260;2023-03-31T13:28:46;6.07;;;5.30;;
45318;SDS011;31057;48.498;32.260;2023-03-31T13:31:14;8.20;;;4.55;;
45318;SDS011;31057;48.498;32.260;2023-03-31T13:33:26;10.27;;;5.72;;
45318;SDS011;31057;48.498;32.260;2023-03-31T13:35:33;11.18;;;7.97;;
45318;SDS011;31057;48.498;32.260;2023-03-31T13:40:06;10.63;;;6.25;;
45318;SDS011;31057;48.498;32.260;2023-03-31T13:46:50;11.68;;;5.63;;
45318;SDS011;31057;48.498;32.260;2023-03-31T13:49:30;7.88;;;4.13;;
45318;SDS011;31057;48.498;32.260;2023-03-31T13:51:56;10.43;;;4.55;;
45318;SDS011;31057;48.498;32.260;2023-03-31T14:03:43;6.78;;;4.72;;
45318;SDS011;31057;48.498;32.260;2023-03-31T14:05:56;9.63;;;6.03;;
45318;SDS011;31057;48.498;32.260;2023-03-31T14:10:05;7.72;;;4.85;;
45318;SDS011;31057;48.498;32.260;2023-03-31T14:14:34;14.15;;;5.78;;
45318;SDS011;31057;48.498;32.260;2023-03-31T14:16:45;11.07;;;5.55;;
45318;SDS011;31057;48.498;32.260;2023-03-31T14:18:52;9.98;;;6.65;;
45318;SDS011;31057;48.498;32.260;2023-03-31T14:21:22;9.43;;;6.32;;
45318;SDS011;31057;48.498;32.260;2023-03-31T14:33:05;11.52;;;7.82;;
45318;SDS011;31057;48.498;32.260;2023-03-31T14:37:33;11.00;;;7.00;;
45318;SDS011;31057;48.498;32.260;2023-03-31T14:41:42;10.73;;;6.40;;
45318;SDS011;31057;48.498;32.260;2023-03-31T14:43:48;10.82;;;5.95;;
45318;SDS011;31057;48.498;32.260;2023-03-31T14:46:11;11.93;;;7.65;;
45318;SDS011;31057;48.498;32.260;2023-03-31T14:48:22;13.75;;;10.27;;
45318;SDS011;31057;48.498;32.260;2023-03-31T14:52:31;20.35;;;9.38;;
45318;SDS011;31057;48.498;32.260;2023-03-31T14:54:35;12.18;;;7.95;;
45318;SDS011;31057;48.498;32.260;2023-03-31T14:56:38;15.55;;;11.38;;
45318;SDS011;31057;48.498;32.260;2023-03-31T14:58:43;21.85;;;12.50;;
45318;SDS011;31057;48.498;32.260;2023-03-31T15:00:51;14.98;;;10.77;;
45318;SDS011;31057;48.498;32.260;2023-03-31T15:02:54;14.43;;;8.52;;
45318;SDS011;31057;48.498;32.260;2023-03-31T15:04:57;16.08;;;9.40;;
45318;SDS011;31057;48.498;32.260;2023-03-31T15:07:02;19.02;;;11.00;;
45318;SDS011;31057;48.498;32.260;2023-03-31T15:09:05;27.55;;;18.17;;
45318;SDS011;31057;48.498;32.260;2023-03-31T15:11:09;33.35;;;23.45;;
45318;SDS011;31057;48.498;32.260;2023-03-31T15:15:32;19.63;;;13.50;;
45318;SDS011;31057;48.498;32.260;2023-03-31T15:17:36;19.02;;;10.25;;
45318;SDS011;31057;48.498;32.260;2023-03-31T15:19:40;15.40;;;7.55;;
45318;SDS011;31057;48.498;32.260;2023-03-31T15:21:42;9.63;;;4.53;;
45318;SDS011;31057;48.498;32.260;2023-03-31T15:23:44;11.18;;;5.05;;
45318;SDS011;31057;48.498;32.260;2023-03-31T15:25:46;12.77;;;5.82;;
45318;SDS011;31057;48.498;32.260;2023-03-31T15:29:59;21.23;;;5.72;;
45318;SDS011;31057;48.498;32.260;2023-03-31T15:32:06;9.85;;;5.07;;
45318;SDS011;31057;48.498;32.260;2023-03-31T15:34:18;11.77;;;5.53;;
45318;SDS011;31057;48.498;32.260;2023-03-31T15:36:33;15.60;;;5.22;;
45318;SDS011;31057;48.498;32.260;2023-03-31T15:38:35;11.93;;;5.22;;
45318;SDS011;31057;48.498;32.260;2023-03-31T15:40:38;13.10;;;5.03;;
45318;SDS011;31057;48.498;32.260;2023-03-31T15:42:43;9.15;;;4.82;;
45318;SDS011;31057;48.498;32.260;2023-03-31T15:47:33;10.05;;;5.05;;
45318;SDS011;31057;48.498;32.260;2023-03-31T15:49:45;7.40;;;4.78;;
45318;SDS011;31057;48.498;32.260;2023-03-31T15:51:53;12.13;;;4.30;;
45318;SDS011;31057;48.498;32.260;2023-03-31T15:53:57;9.57;;;4.32;;
45318;SDS011;31057;48.498;32.260;2023-03-31T15:55:59;8.45;;;4.85;;
45318;SDS011;31057;48.498;32.260;2023-03-31T15:58:02;17.70;;;6.90;;
45318;SDS011;31057;48.498;32.260;2023-03-31T16:00:04;17.92;;;8.02;;
45318;SDS011;31057;48.498;32.260;2023-03-31T16:02:12;10.27;;;5.85;;
45318;SDS011;31057;48.498;32.260;2023-03-31T16:04:30;10.32;;;5.35;;
45318;SDS011;31057;48.498;32.260;2023-03-31T16:08:42;12.77;;;5.57;;
45318;SDS011;31057;48.498;32.260;2023-03-31T16:10:52;12.68;;;5.90;;
45318;SDS011;31057;48.498;32.260;2023-03-31T16:12:59;12.80;;;5.30;;
45318;SDS011;31057;48.498;32.260;2023-03-31T16:15:11;10.50;;;5.55;;
45318;SDS011;31057;48.498;32.260;2023-03-31T16:17:50;18.58;;;6.97;;
45318;SDS011;31057;48.498;32.260;2023-03-31T16:19:55;13.43;;;6.40;;
45318;SDS011;31057;48.498;32.260;2023-03-31T16:22:09;17.67;;;6.18;;
45318;SDS011;31057;48.498;32.260;2023-03-31T16:24:19;13.05;;;5.30;;
45318;SDS011;31057;48.498;32.260;2023-03-31T16:26:23;17.52;;;5.25;;
45318;SDS011;31057;48.498;32.260;2023-03-31T16:28:29;14.38;;;5.88;;
45318;SDS011;31057;48.498;32.260;2023-03-31T16:30:34;15.63;;;7.15;;
45318;SDS011;31057;48.498;32.260;2023-03-31T16:32:38;16.58;;;6.63;;
45318;SDS011;31057;48.498;32.260;2023-03-31T16:36:55;13.32;;;6.45;;
45318;SDS011;31057;48.498;32.260;2023-03-31T16:41:02;13.95;;;6.40;;